sensor_id;sensor_type;location;lat;lon;timestamp;pressure;altitude;pressure_sealevel;temperature
45850;BMP180;10739;52.198;20.908;2023-04-03T00:01:16;100844.00;;;4.90
45850;BMP180;10739;52.198;20.908;2023-04-03T00:03:43;100858.00;;;5.30
45850;BMP180;10739;52.198;20.908;2023-04-03T00:06:11;100853.00;;;4.50
45850;BMP180;10739;52.198;20.908;2023-04-03T00:08:38;100864.00;;;4.40
45850;BMP180;10739;52.198;20.908;2023-04-03T00:11:06;100862.00;;;4.30
45850;BMP180;10739;52.198;20.908;2023-04-03T00:13:33;100852.00;;;4.40
45850;BMP180;10739;52.198;20.908;2023-04-03T00:16:00;100861.00;;;4.60
45850;BMP180;10739;52.198;20.908;2023-04-03T00:18:27;100863.00;;;4.90
45850;BMP180;10739;52.198;20.908;2023-04-03T00:20:54;100864.00;;;5.20
45850;BMP180;10739;52.198;20.908;2023-04-03T00:23:20;100867.00;;;4.60
45850;BMP180;10739;52.198;20.908;2023-04-03T00:25:47;100868.00;;;4.50
45850;BMP180;10739;52.198;20.908;2023-04-03T00:28:14;100874.00;;;4.70
45850;BMP180;10739;52.198;20.908;2023-04-03T00:30:41;100879.00;;;4.40
45850;BMP180;10739;52.198;20.908;2023-04-03T00:33:07;100870.00;;;4.60
45850;BMP180;10739;52.198;20.908;2023-04-03T00:35:34;100878.00;;;4.20
45850;BMP180;10739;52.198;20.908;2023-04-03T00:38:01;100871.00;;;4.10
45850;BMP180;10739;52.198;20.908;2023-04-03T00:40:27;100863.00;;;4.00
45850;BMP180;10739;52.198;20.908;2023-04-03T00:42:59;100868.00;;;4.00
45850;BMP180;10739;52.198;20.908;2023-04-03T00:45:40;100873.00;;;4.00
45850;BMP180;10739;52.198;20.908;2023-04-03T00:48:15;100871.00;;;4.10
45850;BMP180;10739;52.198;20.908;2023-04-03T00:50:44;100874.00;;;3.90
45850;BMP180;10739;52.198;20.908;2023-04-03T00:53:23;100871.00;;;4.30
45850;BMP180;10739;52.198;20.908;2023-04-03T00:55:54;100882.00;;;4.50
45850;BMP180;10739;52.198;20.908;2023-04-03T00:58:31;100882.00;;;4.40
45850;BMP180;10739;52.198;20.908;2023-04-03T01:01:07;100880.00;;;4.20
45850;BMP180;10739;52.198;20.908;2023-04-03T01:03:34;100886.00;;;4.00
45850;BMP180;10739;52.198;20.908;2023-04-03T01:06:01;100895.00;;;4.30
45850;BMP180;10739;52.198;20.908;2023-04-03T01:08:28;100889.00;;;4.40
45850;BMP180;10739;52.198;20.908;2023-04-03T01:10:54;100897.00;;;4.00
45850;BMP180;10739;52.198;20.908;2023-04-03T01:13:28;100901.00;;;4.00
45850;BMP180;10739;52.198;20.908;2023-04-03T01:16:05;100898.00;;;4.30
45850;BMP180;10739;52.198;20.908;2023-04-03T01:18:37;100905.00;;;4.00
45850;BMP180;10739;52.198;20.908;2023-04-03T01:21:47;100907.00;;;4.10
45850;BMP180;10739;52.198;20.908;2023-04-03T01:24:36;100911.00;;;4.00
45850;BMP180;10739;52.198;20.908;2023-04-03T01:27:11;100913.00;;;3.90
45850;BMP180;10739;52.198;20.908;2023-04-03T01:29:43;100928.00;;;3.80
45850;BMP180;10739;52.198;20.908;2023-04-03T01:32:20;100928.00;;;4.00
45850;BMP180;10739;52.198;20.908;2023-04-03T01:34:47;100915.00;;;3.90
45850;BMP180;10739;52.198;20.908;2023-04-03T01:37:13;100927.00;;;3.90
45850;BMP180;10739;52.198;20.908;2023-04-03T01:39:39;100917.00;;;3.60
45850;BMP180;10739;52.198;20.908;2023-04-03T01:42:06;100929.00;;;3.80
45850;BMP180;10739;52.198;20.908;2023-04-03T01:44:32;100925.00;;;3.30
45850;BMP180;10739;52.198;20.908;2023-04-03T01:46:58;100929.00;;;3.70
45850;BMP180;10739;52.198;20.908;2023-04-03T01:49:25;100933.00;;;3.90
45850;BMP180;10739;52.198;20.908;2023-04-03T01:51:51;100929.00;;;3.60
45850;BMP180;10739;52.198;20.908;2023-04-03T01:54:17;100926.00;;;3.50
45850;BMP180;10739;52.198;20.908;2023-04-03T01:56:44;100945.00;;;3.70
45850;BMP180;10739;52.198;20.908;2023-04-03T01:59:10;100938.00;;;3.60
45850;BMP180;10739;52.198;20.908;2023-04-03T02:01:36;100937.00;;;3.70
45850;BMP180;10739;52.198;20.908;2023-04-03T02:04:02;100945.00;;;3.40
45850;BMP180;10739;52.198;20.908;2023-04-03T02:06:29;100949.00;;;3.40
45850;BMP180;10739;52.198;20.908;2023-04-03T02:08:55;100941.00;;;3.70
45850;BMP180;10739;52.198;20.908;2023-04-03T02:11:21;100953.00;;;4.00
45850;BMP180;10739;52.198;20.908;2023-04-03T02:13:48;100946.00;;;3.50
45850;BMP180;10739;52.198;20.908;2023-04-03T02:16:14;100951.00;;;3.90
45850;BMP180;10739;52.198;20.908;2023-04-03T02:18:41;100950.00;;;3.70
45850;BMP180;10739;52.198;20.908;2023-04-03T02:21:07;100950.00;;;3.20
45850;BMP180;10739;52.198;20.908;2023-04-03T02:23:34;100947.00;;;3.40
45850;BMP180;10739;52.198;20.908;2023-04-03T02:26:14;100945.00;;;2.90
45850;BMP180;10739;52.198;20.908;2023-04-03T02:28:40;100955.00;;;3.40
45850;BMP180;10739;52.198;20.908;2023-04-03T02:31:08;100951.00;;;3.10
45850;BMP180;10739;52.198;20.908;2023-04-03T02:33:35;100954.00;;;3.00
45850;BMP180;10739;52.198;20.908;2023-04-03T02:36:05;100962.00;;;3.20
45850;BMP180;10739;52.198;20.908;2023-04-03T02:38:31;100973.00;;;3.40
45850;BMP180;10739;52.198;20.908;2023-04-03T02:41:10;100963.00;;;3.10
45850;BMP180;10739;52.198;20.908;2023-04-03T02:43:37;100967.00;;;3.30
45850;BMP180;10739;52.198;20.908;2023-04-03T02:46:04;100968.00;;;2.90
45850;BMP180;10739;52.198;20.908;2023-04-03T02:48:31;100961.00;;;3.40
45850;BMP180;10739;52.198;20.908;2023-04-03T02:50:57;100968.00;;;3.30
45850;BMP180;10739;52.198;20.908;2023-04-03T02:53:24;100981.00;;;2.80
45850;BMP180;10739;52.198;20.908;2023-04-03T02:55:50;100981.00;;;2.80
45850;BMP180;10739;52.198;20.908;2023-04-03T02:58:16;100969.00;;;3.20
45850;BMP180;10739;52.198;20.908;2023-04-03T03:00:43;100967.00;;;3.20
45850;BMP180;10739;52.198;20.908;2023-04-03T03:03:09;100962.00;;;2.90
45850;BMP180;10739;52.198;20.908;2023-04-03T03:05:35;100966.00;;;3.10
45850;BMP180;10739;52.198;20.908;2023-04-03T03:08:02;100981.00;;;2.80
45850;BMP180;10739;52.198;20.908;2023-04-03T03:10:28;100967.00;;;3.00
45850;BMP180;10739;52.198;20.908;2023-04-03T03:12:54;100957.00;;;2.60
45850;BMP180;10739;52.198;20.908;2023-04-03T03:15:21;100972.00;;;2.60
45850;BMP180;10739;52.198;20.908;2023-04-03T03:17:47;100978.00;;;2.50
45850;BMP180;10739;52.198;20.908;2023-04-03T03:20:13;100971.00;;;2.50
45850;BMP180;10739;52.198;20.908;2023-04-03T03:22:41;100975.00;;;2.80
45850;BMP180;10739;52.198;20.908;2023-04-03T03:25:07;100972.00;;;2.70
45850;BMP180;10739;52.198;20.908;2023-04-03T03:27:34;100976.00;;;2.70
45850;BMP180;10739;52.198;20.908;2023-04-03T03:30:00;100994.00;;;2.40
45850;BMP180;10739;52.198;20.908;2023-04-03T03:32:27;100982.00;;;2.30
45850;BMP180;10739;52.198;20.908;2023-04-03T03:34:53;100991.00;;;2.50
45850;BMP180;10739;52.198;20.908;2023-04-03T03:37:19;100993.00;;;2.40
45850;BMP180;10739;52.198;20.908;2023-04-03T03:39:45;100983.00;;;2.30
45850;BMP180;10739;52.198;20.908;2023-04-03T03:42:12;100982.00;;;2.50
45850;BMP180;10739;52.198;20.908;2023-04-03T03:44:38;100986.00;;;2.50
45850;BMP180;10739;52.198;20.908;2023-04-03T03:47:04;100979.00;;;2.30
45850;BMP180;10739;52.198;20.908;2023-04-03T03:49:32;100975.00;;;2.50
45850;BMP180;10739;52.198;20.908;2023-04-03T03:51:58;100983.00;;;2.40
45850;BMP180;10739;52.198;20.908;2023-04-03T03:54:24;100983.00;;;2.20
45850;BMP180;10739;52.198;20.908;2023-04-03T03:56:51;100985.00;;;2.50
45850;BMP180;10739;52.198;20.908;2023-04-03T03:59:17;100999.00;;;2.40
45850;BMP180;10739;52.198;20.908;2023-04-03T04:01:43;100995.00;;;2.80
45850;BMP180;10739;52.198;20.908;2023-04-03T04:04:10;100993.00;;;2.60
45850;BMP180;10739;52.198;20.908;2023-04-03T04:06:36;100989.00;;;2.50
45850;BMP180;10739;52.198;20.908;2023-04-03T04:09:02;100993.00;;;2.90
45850;BMP180;10739;52.198;20.908;2023-04-03T04:11:29;101000.00;;;2.60
45850;BMP180;10739;52.198;20.908;2023-04-03T04:13:55;100994.00;;;2.50
45850;BMP180;10739;52.198;20.908;2023-04-03T04:16:21;101000.00;;;2.50
45850;BMP180;10739;52.198;20.908;2023-04-03T04:18:47;101004.00;;;2.50
45850;BMP180;10739;52.198;20.908;2023-04-03T04:21:14;101008.00;;;2.40
45850;BMP180;10739;52.198;20.908;2023-04-03T04:23:40;101010.00;;;2.20
45850;BMP180;10739;52.198;20.908;2023-04-03T04:26:06;101007.00;;;2.40
45850;BMP180;10739;52.198;20.908;2023-04-03T04:28:32;101012.00;;;2.50
45850;BMP180;10739;52.198;20.908;2023-04-03T04:30:59;101023.00;;;2.40
45850;BMP180;10739;52.198;20.908;2023-04-03T04:33:25;101014.00;;;2.30
45850;BMP180;10739;52.198;20.908;2023-04-03T04:35:52;101020.00;;;2.00
45850;BMP180;10739;52.198;20.908;2023-04-03T04:38:18;101013.00;;;2.70
45850;BMP180;10739;52.198;20.908;2023-04-03T04:40:44;101024.00;;;2.40
45850;BMP180;10739;52.198;20.908;2023-04-03T04:43:11;101039.00;;;2.50
45850;BMP180;10739;52.198;20.908;2023-04-03T04:45:41;101043.00;;;2.00
45850;BMP180;10739;52.198;20.908;2023-04-03T04:48:08;101036.00;;;2.30
45850;BMP180;10739;52.198;20.908;2023-04-03T04:50:34;101038.00;;;2.60
45850;BMP180;10739;52.198;20.908;2023-04-03T04:53:01;101037.00;;;2.10
45850;BMP180;10739;52.198;20.908;2023-04-03T04:55:27;101041.00;;;2.30
45850;BMP180;10739;52.198;20.908;2023-04-03T04:57:53;101037.00;;;2.80
45850;BMP180;10739;52.198;20.908;2023-04-03T05:00:20;101041.00;;;2.20
45850;BMP180;10739;52.198;20.908;2023-04-03T05:02:46;101042.00;;;2.30
45850;BMP180;10739;52.198;20.908;2023-04-03T05:05:13;101046.00;;;2.50
45850;BMP180;10739;52.198;20.908;2023-04-03T05:07:39;101063.00;;;2.10
45850;BMP180;10739;52.198;20.908;2023-04-03T05:10:07;101053.00;;;2.40
45850;BMP180;10739;52.198;20.908;2023-04-03T05:12:34;101050.00;;;2.50
45850;BMP180;10739;52.198;20.908;2023-04-03T05:15:00;101051.00;;;2.30
45850;BMP180;10739;52.198;20.908;2023-04-03T05:17:38;101049.00;;;2.30
45850;BMP180;10739;52.198;20.908;2023-04-03T05:20:06;101054.00;;;2.30
45850;BMP180;10739;52.198;20.908;2023-04-03T05:22:32;101056.00;;;2.20
45850;BMP180;10739;52.198;20.908;2023-04-03T05:24:59;101058.00;;;2.10
45850;BMP180;10739;52.198;20.908;2023-04-03T05:27:25;101060.00;;;2.80
45850;BMP180;10739;52.198;20.908;2023-04-03T05:29:55;101067.00;;;2.40
45850;BMP180;10739;52.198;20.908;2023-04-03T05:32:23;101064.00;;;2.80
45850;BMP180;10739;52.198;20.908;2023-04-03T05:34:49;101076.00;;;3.10
45850;BMP180;10739;52.198;20.908;2023-04-03T05:37:17;101067.00;;;2.70
45850;BMP180;10739;52.198;20.908;2023-04-03T05:39:43;101077.00;;;2.40
45850;BMP180;10739;52.198;20.908;2023-04-03T05:42:10;101091.00;;;2.80
45850;BMP180;10739;52.198;20.908;2023-04-03T05:44:41;101078.00;;;3.00
45850;BMP180;10739;52.198;20.908;2023-04-03T05:47:08;101073.00;;;3.00
45850;BMP180;10739;52.198;20.908;2023-04-03T05:49:34;101087.00;;;2.70
45850;BMP180;10739;52.198;20.908;2023-04-03T05:52:01;101088.00;;;3.00
45850;BMP180;10739;52.198;20.908;2023-04-03T05:54:30;101091.00;;;2.70
45850;BMP180;10739;52.198;20.908;2023-04-03T05:56:56;101084.00;;;2.90
45850;BMP180;10739;52.198;20.908;2023-04-03T05:59:22;101087.00;;;2.60
45850;BMP180;10739;52.198;20.908;2023-04-03T06:01:49;101104.00;;;2.80
45850;BMP180;10739;52.198;20.908;2023-04-03T06:04:15;101102.00;;;2.50
45850;BMP180;10739;52.198;20.908;2023-04-03T06:06:54;101116.00;;;2.70
45850;BMP180;10739;52.198;20.908;2023-04-03T06:09:26;101109.00;;;2.40
45850;BMP180;10739;52.198;20.908;2023-04-03T06:11:53;101111.00;;;2.30
45850;BMP180;10739;52.198;20.908;2023-04-03T06:14:19;101099.00;;;2.90
45850;BMP180;10739;52.198;20.908;2023-04-03T06:16:45;101106.00;;;3.30
45850;BMP180;10739;52.198;20.908;2023-04-03T06:19:12;101108.00;;;3.40
45850;BMP180;10739;52.198;20.908;2023-04-03T06:21:39;101117.00;;;3.10
45850;BMP180;10739;52.198;20.908;2023-04-03T06:24:06;101108.00;;;3.80
45850;BMP180;10739;52.198;20.908;2023-04-03T06:26:33;101120.00;;;3.30
45850;BMP180;10739;52.198;20.908;2023-04-03T06:29:00;101119.00;;;3.40
45850;BMP180;10739;52.198;20.908;2023-04-03T06:31:26;101123.00;;;3.70
45850;BMP180;10739;52.198;20.908;2023-04-03T06:33:52;101129.00;;;3.50
45850;BMP180;10739;52.198;20.908;2023-04-03T06:36:19;101120.00;;;3.10
45850;BMP180;10739;52.198;20.908;2023-04-03T06:38:47;101117.00;;;3.00
45850;BMP180;10739;52.198;20.908;2023-04-03T06:41:14;101117.00;;;3.10
45850;BMP180;10739;52.198;20.908;2023-04-03T06:43:40;101117.00;;;3.20
45850;BMP180;10739;52.198;20.908;2023-04-03T06:46:15;101120.00;;;3.30
45850;BMP180;10739;52.198;20.908;2023-04-03T06:48:43;101120.00;;;3.40
45850;BMP180;10739;52.198;20.908;2023-04-03T06:51:24;101122.00;;;3.60
45850;BMP180;10739;52.198;20.908;2023-04-03T06:53:53;101132.00;;;3.50
45850;BMP180;10739;52.198;20.908;2023-04-03T06:56:21;101131.00;;;3.50
45850;BMP180;10739;52.198;20.908;2023-04-03T06:58:47;101126.00;;;3.60
45850;BMP180;10739;52.198;20.908;2023-04-03T07:01:16;101124.00;;;3.40
45850;BMP180;10739;52.198;20.908;2023-04-03T07:03:46;101117.00;;;4.80
45850;BMP180;10739;52.198;20.908;2023-04-03T07:06:16;101129.00;;;5.20
45850;BMP180;10739;52.198;20.908;2023-04-03T07:08:43;101132.00;;;6.20
45850;BMP180;10739;52.198;20.908;2023-04-03T07:11:11;101124.00;;;6.60
45850;BMP180;10739;52.198;20.908;2023-04-03T07:13:38;101140.00;;;7.90
45850;BMP180;10739;52.198;20.908;2023-04-03T07:16:05;101141.00;;;5.80
45850;BMP180;10739;52.198;20.908;2023-04-03T07:18:33;101140.00;;;5.60
45850;BMP180;10739;52.198;20.908;2023-04-03T07:21:00;101157.00;;;6.00
45850;BMP180;10739;52.198;20.908;2023-04-03T07:23:27;101142.00;;;6.30
45850;BMP180;10739;52.198;20.908;2023-04-03T07:25:54;101149.00;;;6.50
45850;BMP180;10739;52.198;20.908;2023-04-03T07:28:22;101151.00;;;5.90
45850;BMP180;10739;52.198;20.908;2023-04-03T07:31:04;101158.00;;;5.70
45850;BMP180;10739;52.198;20.908;2023-04-03T07:33:32;101142.00;;;5.50
45850;BMP180;10739;52.198;20.908;2023-04-03T07:35:58;101150.00;;;5.60
45850;BMP180;10739;52.198;20.908;2023-04-03T07:38:26;101150.00;;;6.50
45850;BMP180;10739;52.198;20.908;2023-04-03T07:40:52;101159.00;;;6.40
45850;BMP180;10739;52.198;20.908;2023-04-03T07:43:21;101157.00;;;6.30
45850;BMP180;10739;52.198;20.908;2023-04-03T07:45:49;101162.00;;;6.80
45850;BMP180;10739;52.198;20.908;2023-04-03T07:48:21;101161.00;;;6.40
45850;BMP180;10739;52.198;20.908;2023-04-03T07:50:47;101157.00;;;6.10
45850;BMP180;10739;52.198;20.908;2023-04-03T07:53:14;101155.00;;;7.30
45850;BMP180;10739;52.198;20.908;2023-04-03T07:55:41;101157.00;;;6.30
45850;BMP180;10739;52.198;20.908;2023-04-03T07:58:16;101161.00;;;6.60
45850;BMP180;10739;52.198;20.908;2023-04-03T08:00:44;101160.00;;;6.80
45850;BMP180;10739;52.198;20.908;2023-04-03T08:03:11;101144.00;;;6.90
45850;BMP180;10739;52.198;20.908;2023-04-03T08:05:41;101168.00;;;6.60
45850;BMP180;10739;52.198;20.908;2023-04-03T08:08:11;101157.00;;;6.50
45850;BMP180;10739;52.198;20.908;2023-04-03T08:10:38;101174.00;;;6.30
45850;BMP180;10739;52.198;20.908;2023-04-03T08:13:05;101160.00;;;6.10
45850;BMP180;10739;52.198;20.908;2023-04-03T08:15:32;101165.00;;;7.20
45850;BMP180;10739;52.198;20.908;2023-04-03T08:18:00;101158.00;;;7.30
45850;BMP180;10739;52.198;20.908;2023-04-03T08:20:27;101166.00;;;7.70
45850;BMP180;10739;52.198;20.908;2023-04-03T08:22:54;101163.00;;;7.30
45850;BMP180;10739;52.198;20.908;2023-04-03T08:25:21;101163.00;;;8.10
45850;BMP180;10739;52.198;20.908;2023-04-03T08:27:48;101165.00;;;8.50
45850;BMP180;10739;52.198;20.908;2023-04-03T08:30:15;101158.00;;;8.60
45850;BMP180;10739;52.198;20.908;2023-04-03T08:32:41;101160.00;;;10.00
45850;BMP180;10739;52.198;20.908;2023-04-03T08:35:09;101165.00;;;9.40
45850;BMP180;10739;52.198;20.908;2023-04-03T08:37:37;101172.00;;;8.00
45850;BMP180;10739;52.198;20.908;2023-04-03T08:40:10;101169.00;;;6.40
45850;BMP180;10739;52.198;20.908;2023-04-03T08:45:38;101168.00;;;9.60
45850;BMP180;10739;52.198;20.908;2023-04-03T08:48:29;101163.00;;;10.80
45850;BMP180;10739;52.198;20.908;2023-04-03T08:51:04;101175.00;;;10.90
45850;BMP180;10739;52.198;20.908;2023-04-03T08:53:40;101162.00;;;11.30
45850;BMP180;10739;52.198;20.908;2023-04-03T08:56:10;101170.00;;;12.00
45850;BMP180;10739;52.198;20.908;2023-04-03T08:58:56;101181.00;;;9.90
45850;BMP180;10739;52.198;20.908;2023-04-03T09:01:41;101176.00;;;9.10
45850;BMP180;10739;52.198;20.908;2023-04-03T09:04:14;101167.00;;;9.80
45850;BMP180;10739;52.198;20.908;2023-04-03T09:06:47;101174.00;;;10.70
45850;BMP180;10739;52.198;20.908;2023-04-03T09:09:32;101164.00;;;10.70
45850;BMP180;10739;52.198;20.908;2023-04-03T09:12:27;101177.00;;;11.00
45850;BMP180;10739;52.198;20.908;2023-04-03T09:15:10;101181.00;;;10.90
45850;BMP180;10739;52.198;20.908;2023-04-03T09:17:53;101180.00;;;10.30
45850;BMP180;10739;52.198;20.908;2023-04-03T09:23:46;101173.00;;;9.50
45850;BMP180;10739;52.198;20.908;2023-04-03T09:26:29;101174.00;;;10.90
45850;BMP180;10739;52.198;20.908;2023-04-03T09:29:04;101161.00;;;12.30
45850;BMP180;10739;52.198;20.908;2023-04-03T09:31:42;101168.00;;;10.50
45850;BMP180;10739;52.198;20.908;2023-04-03T09:34:32;101165.00;;;11.90
45850;BMP180;10739;52.198;20.908;2023-04-03T09:37:03;101184.00;;;10.40
45850;BMP180;10739;52.198;20.908;2023-04-03T09:39:52;101183.00;;;10.10
45850;BMP180;10739;52.198;20.908;2023-04-03T09:42:25;101183.00;;;9.90
45850;BMP180;10739;52.198;20.908;2023-04-03T09:45:01;101173.00;;;11.00
45850;BMP180;10739;52.198;20.908;2023-04-03T09:47:31;101169.00;;;12.50
45850;BMP180;10739;52.198;20.908;2023-04-03T09:50:17;101164.00;;;13.30
45850;BMP180;10739;52.198;20.908;2023-04-03T09:52:49;101175.00;;;13.20
45850;BMP180;10739;52.198;20.908;2023-04-03T09:57:59;101179.00;;;13.20
45850;BMP180;10739;52.198;20.908;2023-04-03T10:00:38;101179.00;;;12.10
45850;BMP180;10739;52.198;20.908;2023-04-03T10:03:30;101177.00;;;13.20
45850;BMP180;10739;52.198;20.908;2023-04-03T10:05:58;101171.00;;;12.80
45850;BMP180;10739;52.198;20.908;2023-04-03T10:08:35;101178.00;;;13.30
45850;BMP180;10739;52.198;20.908;2023-04-03T10:11:17;101179.00;;;14.30
45850;BMP180;10739;52.198;20.908;2023-04-03T10:13:59;101185.00;;;15.30
45850;BMP180;10739;52.198;20.908;2023-04-03T10:16:47;101193.00;;;14.30
45850;BMP180;10739;52.198;20.908;2023-04-03T10:19:36;101189.00;;;15.50
45850;BMP180;10739;52.198;20.908;2023-04-03T10:25:19;101195.00;;;11.60
45850;BMP180;10739;52.198;20.908;2023-04-03T10:27:59;101194.00;;;9.30
45850;BMP180;10739;52.198;20.908;2023-04-03T10:31:05;101202.00;;;8.20
45850;BMP180;10739;52.198;20.908;2023-04-03T10:39:22;101189.00;;;10.50
45850;BMP180;10739;52.198;20.908;2023-04-03T10:42:46;101174.00;;;11.30
45850;BMP180;10739;52.198;20.908;2023-04-03T10:45:47;101165.00;;;12.50
45850;BMP180;10739;52.198;20.908;2023-04-03T10:52:50;101179.00;;;10.00
45850;BMP180;10739;52.198;20.908;2023-04-03T10:55:43;101189.00;;;10.10
45850;BMP180;10739;52.198;20.908;2023-04-03T10:57:44;101179.00;;;8.90
45850;BMP180;10739;52.198;20.908;2023-04-03T11:00:35;101179.00;;;8.50
45850;BMP180;10739;52.198;20.908;2023-04-03T11:03:58;101177.00;;;7.90
45850;BMP180;10739;52.198;20.908;2023-04-03T11:06:32;101181.00;;;8.20
45850;BMP180;10739;52.198;20.908;2023-04-03T11:09:16;101188.00;;;7.80
45850;BMP180;10739;52.198;20.908;2023-04-03T11:11:44;101177.00;;;7.90
45850;BMP180;10739;52.198;20.908;2023-04-03T11:22:32;101178.00;;;7.60
45850;BMP180;10739;52.198;20.908;2023-04-03T11:27:59;101176.00;;;7.40
45850;BMP180;10739;52.198;20.908;2023-04-03T11:36:28;101157.00;;;7.80
45850;BMP180;10739;52.198;20.908;2023-04-03T11:39:02;101160.00;;;7.90
45850;BMP180;10739;52.198;20.908;2023-04-03T11:41:32;101170.00;;;7.20
45850;BMP180;10739;52.198;20.908;2023-04-03T11:44:36;101163.00;;;7.40
45850;BMP180;10739;52.198;20.908;2023-04-03T11:47:06;101157.00;;;8.30
45850;BMP180;10739;52.198;20.908;2023-04-03T11:49:59;101146.00;;;8.10
45850;BMP180;10739;52.198;20.908;2023-04-03T12:19:45;101153.00;;;8.50
45850;BMP180;10739;52.198;20.908;2023-04-03T12:22:16;101156.00;;;8.00
45850;BMP180;10739;52.198;20.908;2023-04-03T12:24:45;101145.00;;;8.70
45850;BMP180;10739;52.198;20.908;2023-04-03T12:35:27;101144.00;;;9.00
45850;BMP180;10739;52.198;20.908;2023-04-03T12:38:40;101147.00;;;9.00
45850;BMP180;10739;52.198;20.908;2023-04-03T12:46:51;101148.00;;;8.70
45850;BMP180;10739;52.198;20.908;2023-04-03T12:49:38;101146.00;;;9.60
45850;BMP180;10739;52.198;20.908;2023-04-03T12:54:46;101141.00;;;9.40
45850;BMP180;10739;52.198;20.908;2023-04-03T12:57:21;101154.00;;;9.50
45850;BMP180;10739;52.198;20.908;2023-04-03T12:59:50;101157.00;;;8.80
45850;BMP180;10739;52.198;20.908;2023-04-03T13:02:32;101156.00;;;8.20
45850;BMP180;10739;52.198;20.908;2023-04-03T13:05:08;101162.00;;;7.60
45850;BMP180;10739;52.198;20.908;2023-04-03T13:07:40;101157.00;;;8.10
45850;BMP180;10739;52.198;20.908;2023-04-03T13:12:58;101143.00;;;8.80
45850;BMP180;10739;52.198;20.908;2023-04-03T13:15:39;101149.00;;;8.90
45850;BMP180;10739;52.198;20.908;2023-04-03T13:18:32;101150.00;;;8.90
45850;BMP180;10739;52.198;20.908;2023-04-03T13:21:07;101154.00;;;8.00
45850;BMP180;10739;52.198;20.908;2023-04-03T13:23:42;101151.00;;;8.20
45850;BMP180;10739;52.198;20.908;2023-04-03T13:26:11;101152.00;;;8.00
45850;BMP180;10739;52.198;20.908;2023-04-03T13:28:40;101151.00;;;8.10
45850;BMP180;10739;52.198;20.908;2023-04-03T13:34:09;101151.00;;;8.00
45850;BMP180;10739;52.198;20.908;2023-04-03T13:41:53;101152.00;;;9.10
45850;BMP180;10739;52.198;20.908;2023-04-03T13:46:56;101142.00;;;8.20
45850;BMP180;10739;52.198;20.908;2023-04-03T13:51:54;101145.00;;;9.50
45850;BMP180;10739;52.198;20.908;2023-04-03T13:54:38;101136.00;;;10.10
45850;BMP180;10739;52.198;20.908;2023-04-03T13:57:14;101149.00;;;9.80
45850;BMP180;10739;52.198;20.908;2023-04-03T13:59:41;101141.00;;;10.20
45850;BMP180;10739;52.198;20.908;2023-04-03T14:07:12;101139.00;;;10.40
45850;BMP180;10739;52.198;20.908;2023-04-03T14:09:39;101137.00;;;9.80
45850;BMP180;10739;52.198;20.908;2023-04-03T14:15:01;101147.00;;;9.00
45850;BMP180;10739;52.198;20.908;2023-04-03T14:17:28;101137.00;;;8.80
45850;BMP180;10739;52.198;20.908;2023-04-03T14:19:57;101141.00;;;9.00
45850;BMP180;10739;52.198;20.908;2023-04-03T14:22:31;101143.00;;;8.90
45850;BMP180;10739;52.198;20.908;2023-04-03T14:24:59;101139.00;;;8.60
45850;BMP180;10739;52.198;20.908;2023-04-03T14:27:35;101143.00;;;8.30
45850;BMP180;10739;52.198;20.908;2023-04-03T14:30:03;101144.00;;;9.10
45850;BMP180;10739;52.198;20.908;2023-04-03T14:32:30;101152.00;;;8.40
45850;BMP180;10739;52.198;20.908;2023-04-03T14:34:57;101140.00;;;8.50
45850;BMP180;10739;52.198;20.908;2023-04-03T14:37:28;101140.00;;;7.90
45850;BMP180;10739;52.198;20.908;2023-04-03T14:39:57;101141.00;;;7.70
45850;BMP180;10739;52.198;20.908;2023-04-03T14:42:33;101129.00;;;8.00
45850;BMP180;10739;52.198;20.908;2023-04-03T14:45:38;101132.00;;;8.70
45850;BMP180;10739;52.198;20.908;2023-04-03T14:48:37;101134.00;;;8.70
45850;BMP180;10739;52.198;20.908;2023-04-03T14:51:04;101146.00;;;8.30
45850;BMP180;10739;52.198;20.908;2023-04-03T14:53:30;101151.00;;;8.10
45850;BMP180;10739;52.198;20.908;2023-04-03T14:55:58;101146.00;;;8.20
45850;BMP180;10739;52.198;20.908;2023-04-03T14:58:25;101141.00;;;8.00
45850;BMP180;10739;52.198;20.908;2023-04-03T15:00:52;101140.00;;;8.30
45850;BMP180;10739;52.198;20.908;2023-04-03T15:03:21;101146.00;;;7.60
45850;BMP180;10739;52.198;20.908;2023-04-03T15:05:49;101156.00;;;7.30
45850;BMP180;10739;52.198;20.908;2023-04-03T15:08:25;101161.00;;;7.70
45850;BMP180;10739;52.198;20.908;2023-04-03T15:10:53;101155.00;;;7.90
45850;BMP180;10739;52.198;20.908;2023-04-03T15:13:22;101148.00;;;7.60
45850;BMP180;10739;52.198;20.908;2023-04-03T15:15:50;101141.00;;;7.90
45850;BMP180;10739;52.198;20.908;2023-04-03T15:18:25;101141.00;;;7.70
45850;BMP180;10739;52.198;20.908;2023-04-03T15:20:54;101143.00;;;8.20
45850;BMP180;10739;52.198;20.908;2023-04-03T15:23:21;101148.00;;;7.80
45850;BMP180;10739;52.198;20.908;2023-04-03T15:25:53;101146.00;;;8.30
45850;BMP180;10739;52.198;20.908;2023-04-03T15:30:52;101152.00;;;7.70
45850;BMP180;10739;52.198;20.908;2023-04-03T15:33:19;101148.00;;;7.60
45850;BMP180;10739;52.198;20.908;2023-04-03T15:35:45;101164.00;;;7.50
45850;BMP180;10739;52.198;20.908;2023-04-03T15:38:12;101157.00;;;7.80
45850;BMP180;10739;52.198;20.908;2023-04-03T15:40:39;101160.00;;;7.40
45850;BMP180;10739;52.198;20.908;2023-04-03T15:43:06;101149.00;;;7.20
45850;BMP180;10739;52.198;20.908;2023-04-03T15:45:35;101161.00;;;7.70
45850;BMP180;10739;52.198;20.908;2023-04-03T15:48:04;101148.00;;;7.50
45850;BMP180;10739;52.198;20.908;2023-04-03T15:50:32;101158.00;;;7.80
45850;BMP180;10739;52.198;20.908;2023-04-03T15:52:59;101156.00;;;7.70
45850;BMP180;10739;52.198;20.908;2023-04-03T15:55:31;101149.00;;;7.80
45850;BMP180;10739;52.198;20.908;2023-04-03T15:57:57;101148.00;;;8.00
45850;BMP180;10739;52.198;20.908;2023-04-03T16:00:25;101157.00;;;7.60
45850;BMP180;10739;52.198;20.908;2023-04-03T16:03:08;101155.00;;;7.70
45850;BMP180;10739;52.198;20.908;2023-04-03T16:05:37;101159.00;;;7.00